Terminal Aerodrome Forecast
Issued by NWS

Home | Current Version | Previous Version | Graphics & Text | Print | Product List | Glossary On
Versions: 1 2 3 4 5 6 7 8 9 10 11 12 13 14 15 16 17 18 19 20 21 22 23 24 25 26 27 28 29
000
FTUS43 KLOT 250709 AAA
TAFGYY
TAF AMD
KGYY 250709Z 2507/2606 29013G20KT 6SM BR VCSH BKN012 OVC022
      TEMPO 2507/2509 4SM -RASN
     FM250900 29015G23KT 3SM -SN BR BKN015 OVC022
     FM251300 28018G26KT P6SM OVC020
     FM251700 29018G26KT P6SM OVC020
     FM252300 29017G25KT P6SM BKN035
     FM260500 27008KT P6SM SCT100=

USA.gov is the U.S. government's official web portal to all federal, state and local government web resources and services.